Time;durP1;ratioP1;P1;durP2;ratioP2;P2;SDS_P1;SDS_P2;PMS_P1;PMS_P2;Temp;Humidity;BMP_temperature;BMP_pressure;BME280_temperature;BME280_humidity;BME280_pressure;Samples;Min_cycle;Max_cycle;Signal;HPM_P1;HPM_P2
2023/12/22 00:01:21;;;;;;;;;;;6.70;99.90;;;;;;5043802;28;19946;-68
2023/12/22 00:03:47;;;;;;;;;;;6.80;99.90;;;;;;5045386;28;19942;-69
2023/12/22 00:06:12;;;;;;;;;;;6.80;99.90;;;;;;5048585;28;20385;-68
2023/12/22 00:08:38;;;;;;;;;;;6.90;99.90;;;;;;5047384;28;19944;-65
2023/12/22 00:11:04;;;;;;;;;;;6.80;99.90;;;;;;5046374;28;19956;-68
2023/12/22 00:13:29;;;;;;;;;;;6.90;99.90;;;;;;5050681;28;19936;-68
2023/12/22 00:15:55;;;;;;;;;;;6.90;99.90;;;;;;5048061;28;19992;-63
2023/12/22 00:18:20;;;;;;;;;;;6.80;99.90;;;;;;5050122;28;20042;-69
2023/12/22 00:20:46;;;;;;;;;;;6.80;99.90;;;;;;5047699;28;20419;-70
2023/12/22 00:23:11;;;;;;;;;;;6.70;99.90;;;;;;5051976;28;20470;-68
2023/12/22 00:25:37;;;;;;;;;;;6.70;99.90;;;;;;5051993;28;20402;-70
2023/12/22 00:28:03;;;;;;;;;;;6.80;99.90;;;;;;5052835;28;19932;-76
2023/12/22 00:30:28;;;;;;;;;;;6.80;99.90;;;;;;5047002;28;20311;-70
2023/12/22 00:32:54;;;;;;;;;;;6.80;99.90;;;;;;5050980;28;19945;-70
2023/12/22 00:35:19;;;;;;;;;;;6.90;99.90;;;;;;5049543;28;19971;-68
2023/12/22 00:37:45;;;;;;;;;;;6.90;99.90;;;;;;5044528;28;20014;-71
2023/12/22 00:40:10;;;;;;;;;;;6.90;99.90;;;;;;5048384;28;19944;-68
2023/12/22 00:42:36;;;;;;;;;;;6.90;99.90;;;;;;5047620;28;19948;-75
2023/12/22 00:45:01;;;;;;;;;;;6.90;99.90;;;;;;5049026;28;19938;-70
2023/12/22 00:47:27;;;;;;;;;;;6.90;99.90;;;;;;5041212;28;19948;-70
2023/12/22 00:49:53;;;;;;;;;;;6.90;99.90;;;;;;5035660;28;21154;-71
2023/12/22 00:52:18;;;;;;;;;;;6.90;99.90;;;;;;5038477;28;19991;-72
2023/12/22 00:54:44;;;;;;;;;;;6.90;99.90;;;;;;5037858;28;19952;-71
2023/12/22 00:57:09;;;;;;;2.90;2.37;;;6.90;99.90;;;;;;5031305;28;21399;-75
2023/12/22 00:59:35;;;;;;;2.75;1.90;;;6.80;99.90;;;;;;5028775;28;20025;-70
2023/12/22 01:02:00;;;;;;;2.53;2.20;;;6.80;99.90;;;;;;5018255;28;20243;-72
2023/12/22 01:04:26;;;;;;;1.83;1.50;;;6.90;99.90;;;;;;5024687;28;20048;-68
2023/12/22 01:06:52;;;;;;;2.35;1.65;;;6.90;99.90;;;;;;5020419;28;20496;-75
2023/12/22 01:09:19;;;;;;;1.23;1.10;;;6.90;99.90;;;;;;5014307;28;20453;-68
2023/12/22 01:11:45;;;;;;;1.52;1.17;;;6.90;99.90;;;;;;5020182;28;20494;-74
2023/12/22 01:14:13;;;;;;;2.15;1.40;;;6.90;99.90;;;;;;5025429;28;20029;-73
2023/12/22 01:16:39;;;;;;;0.47;0.47;;;6.90;99.90;;;;;;5004912;28;20046;-64
2023/12/22 01:19:05;;;;;;;1.15;0.90;;;6.90;99.90;;;;;;5014509;28;20025;-65
2023/12/22 01:21:30;;;;;;;1.23;1.13;;;6.90;99.90;;;;;;5022752;28;20462;-72
2023/12/22 01:23:56;;;;;;;1.90;0.82;;;6.90;99.90;;;;;;5027868;28;20033;-69
2023/12/22 01:26:21;;;;;;;2.95;0.80;;;6.90;99.90;;;;;;5028808;28;20329;-63
2023/12/22 01:28:47;;;;;;;3.08;0.80;;;6.90;99.90;;;;;;5021571;28;20071;-64
2023/12/22 01:31:13;;;;;;;0.90;0.47;;;6.90;99.90;;;;;;5019603;28;20458;-72
2023/12/22 01:33:38;;;;;;;0.55;0.55;;;7.00;99.90;;;;;;5022969;28;20037;-70
2023/12/22 01:36:04;;;;;;;0.60;0.50;;;7.00;99.90;;;;;;5021270;28;20080;-72
2023/12/22 01:38:30;;;;;;;0.40;0.30;;;6.90;99.90;;;;;;5002403;28;20022;-67
2023/12/22 01:40:55;;;;;;;0.38;0.38;;;6.90;99.90;;;;;;5007112;28;20569;-66
2023/12/22 01:43:21;;;;;;;2.45;0.70;;;7.00;99.90;;;;;;5004845;28;20042;-64
2023/12/22 01:45:58;;;;;;;0.40;0.40;;;7.00;99.90;;;;;;5003803;28;20041;-65
2023/12/22 01:48:28;;;;;;;0.40;0.35;;;6.90;99.90;;;;;;5003517;28;20038;-64
2023/12/22 01:50:55;;;;;;;0.20;0.20;;;6.90;99.90;;;;;;4983906;28;20033;-62
2023/12/22 01:53:22;;;;;;;1.27;0.60;;;6.80;99.90;;;;;;5000967;28;20044;-65
2023/12/22 01:55:50;;;;;;;0.60;0.50;;;6.80;99.90;;;;;;5003039;28;20056;-63
2023/12/22 01:58:17;;;;;;;0.22;0.20;;;6.70;99.90;;;;;;4999294;28;20753;-68
2023/12/22 02:00:42;;;;;;;0.57;0.38;;;6.70;99.90;;;;;;5000441;28;20041;-65
2023/12/22 02:03:08;;;;;;;0.30;0.30;;;6.70;99.90;;;;;;5000488;28;20030;-63
2023/12/22 02:05:34;;;;;;;0.85;0.30;;;6.70;99.90;;;;;;4998774;28;20037;-68
2023/12/22 02:08:00;;;;;;;0.35;0.20;;;6.70;99.90;;;;;;5000107;28;20570;-64
2023/12/22 02:10:26;;;;;;;0.60;0.52;;;6.70;99.90;;;;;;5004903;28;20029;-73
2023/12/22 02:12:51;;;;;;;1.17;0.20;;;6.70;99.90;;;;;;4996156;28;20049;-70
2023/12/22 02:15:17;;;;;;;0.22;0.20;;;6.70;99.90;;;;;;4996687;28;20313;-71
2023/12/22 02:17:59;;;;;;;0.20;0.20;;;6.70;99.90;;;;;;4999063;28;21952;-74
2023/12/22 02:20:25;;;;;;;0.38;0.38;;;6.70;99.90;;;;;;4997336;28;20321;-68
2023/12/22 02:22:53;;;;;;;1.30;0.43;;;6.60;99.90;;;;;;4992835;28;20030;-70
2023/12/22 02:25:19;;;;;;;1.25;0.20;;;6.60;99.90;;;;;;4994574;28;20097;-70
2023/12/22 02:27:50;;;;;;;1.02;0.40;;;6.60;99.90;;;;;;4994985;28;20026;-72
2023/12/22 02:30:30;;;;;;;2.20;0.30;;;6.50;99.90;;;;;;4995537;28;20630;-74
2023/12/22 02:33:03;;;;;;;0.50;0.25;;;6.50;99.90;;;;;;4995369;28;20026;-73
2023/12/22 02:35:30;;;;;;;0.20;0.20;;;6.50;99.90;;;;;;4997127;28;20329;-72
2023/12/22 02:38:00;;;;;;;0.35;0.15;;;6.50;99.90;;;;;;4992694;28;20037;-72
2023/12/22 02:40:27;;;;;;;0.10;0.10;;;6.50;99.90;;;;;;4993351;28;20069;-69
2023/12/22 02:42:53;;;;;;;1.67;0.10;;;6.60;99.90;;;;;;4992516;28;20409;-75
2023/12/22 02:45:19;;;;;;;1.23;0.22;;;6.50;99.90;;;;;;4992698;28;20694;-77
2023/12/22 02:47:46;;;;;;;1.48;0.30;;;6.50;99.90;;;;;;4994334;28;20188;-73
2023/12/22 02:50:14;;;;;;;1.15;0.20;;;6.40;99.90;;;;;;4995515;28;20446;-71
2023/12/22 02:52:40;;;;;;;0.90;0.25;;;6.30;99.90;;;;;;4990871;28;20061;-77
2023/12/22 02:55:06;;;;;;;3.00;0.30;;;6.30;99.90;;;;;;4992052;28;20734;-73
2023/12/22 02:57:31;;;;;;;2.63;0.50;;;6.40;99.90;;;;;;4997751;28;20038;-74
2023/12/22 02:59:57;;;;;;;1.45;0.20;;;6.30;99.90;;;;;;4993122;28;20029;-77
2023/12/22 03:02:23;;;;;;;2.17;0.20;;;6.30;99.90;;;;;;4996708;28;20099;-74
2023/12/22 03:04:49;;;;;;;2.78;0.25;;;6.30;99.90;;;;;;5000166;28;20703;-71
2023/12/22 03:07:15;;;;;;;2.05;0.20;;;6.30;99.90;;;;;;4979385;28;20433;-64
2023/12/22 03:09:42;;;;;;;0.77;0.20;;;6.30;99.90;;;;;;5000483;28;21069;-73
2023/12/22 03:12:08;;;;;;;0.20;0.10;;;6.30;99.90;;;;;;5000295;28;20126;-70
2023/12/22 03:14:34;;;;;;;1.77;0.30;;;6.30;99.90;;;;;;4998039;28;20068;-66
2023/12/22 03:17:06;;;;;;;1.20;0.38;;;6.40;99.90;;;;;;4996134;28;20590;-67
2023/12/22 03:19:32;;;;;;;4.07;0.65;;;6.40;99.90;;;;;;4992950;28;20056;-69
2023/12/22 03:21:58;;;;;;;5.57;2.20;;;6.30;99.90;;;;;;4995984;28;20495;-68
2023/12/22 03:24:25;;;;;;;0.22;0.20;;;6.30;99.90;;;;;;4993562;28;20057;-73
2023/12/22 03:26:51;;;;;;;1.10;0.20;;;6.30;99.90;;;;;;4988882;28;20037;-72
2023/12/22 03:29:17;;;;;;;2.45;0.30;;;6.30;99.90;;;;;;4995703;28;20041;-69
2023/12/22 03:31:43;;;;;;;0.90;0.20;;;6.30;99.90;;;;;;4993864;28;20554;-73
2023/12/22 03:34:09;;;;;;;0.40;0.10;;;6.30;99.90;;;;;;4994370;28;20037;-74
2023/12/22 03:36:34;;;;;;;0.25;0.20;;;6.30;99.90;;;;;;4996008;28;20112;-70
2023/12/22 03:39:01;;;;;;;0.50;0.30;;;6.30;99.90;;;;;;4997799;28;20104;-76
2023/12/22 03:41:26;;;;;;;1.13;0.40;;;6.30;99.90;;;;;;4994373;28;20043;-73
2023/12/22 03:43:52;;;;;;;1.95;0.20;;;6.20;99.90;;;;;;4996658;28;20022;-68
2023/12/22 03:46:18;;;;;;;0.43;0.20;;;6.30;99.90;;;;;;4993683;28;20872;-68
2023/12/22 03:48:44;;;;;;;0.90;0.40;;;6.30;99.90;;;;;;4995905;28;20079;-67
2023/12/22 03:51:11;;;;;;;0.60;0.15;;;6.40;99.90;;;;;;4997214;28;20395;-66
2023/12/22 03:53:37;;;;;;;0.10;0.10;;;6.30;99.90;;;;;;4994278;28;20418;-64
2023/12/22 03:56:03;;;;;;;1.77;0.30;;;6.20;99.90;;;;;;4996108;28;20125;-70
2023/12/22 03:58:29;;;;;;;0.03;0.00;;;6.20;99.90;;;;;;4991684;28;20033;-65
2023/12/22 04:00:55;;;;;;;1.55;0.20;;;6.10;99.90;;;;;;4996012;28;20514;-66
2023/12/22 04:03:21;;;;;;;2.03;0.35;;;6.00;99.90;;;;;;4992119;28;20036;-64
2023/12/22 04:05:47;;;;;;;1.10;0.20;;;5.90;99.90;;;;;;4992332;28;20033;-64
2023/12/22 04:08:12;;;;;;;0.90;0.10;;;5.80;99.90;;;;;;4995304;28;20612;-70
2023/12/22 04:10:38;;;;;;;1.60;0.32;;;5.70;99.90;;;;;;4996187;28;20180;-67
2023/12/22 04:13:04;;;;;;;1.95;0.20;;;5.70;99.90;;;;;;4990829;28;20378;-69
2023/12/22 04:15:29;;;;;;;1.42;0.40;;;5.60;99.90;;;;;;4996525;28;20178;-79
2023/12/22 04:17:55;;;;;;;2.15;0.50;;;5.50;99.90;;;;;;4991386;28;20445;-73
2023/12/22 04:20:21;;;;;;;1.17;0.47;;;5.50;99.90;;;;;;4997007;28;20037;-74
2023/12/22 04:22:46;;;;;;;5.30;1.25;;;5.40;99.90;;;;;;4997700;28;20038;-79
2023/12/22 04:25:12;;;;;;;4.22;0.90;;;5.40;99.90;;;;;;4999504;28;20642;-76
2023/12/22 04:27:37;;;;;;;2.85;0.88;;;5.40;99.90;;;;;;4996726;28;20029;-80
2023/12/22 04:30:03;;;;;;;4.82;0.75;;;5.30;99.90;;;;;;4989646;28;20549;-74
2023/12/22 04:32:29;;;;;;;3.63;0.90;;;5.30;99.90;;;;;;4999857;28;20025;-81
2023/12/22 04:34:55;;;;;;;3.88;0.43;;;5.30;99.90;;;;;;4982492;28;20033;-71
2023/12/22 04:37:20;;;;;;;2.83;0.30;;;5.30;99.90;;;;;;5004366;28;20057;-78
2023/12/22 04:39:46;;;;;;;2.83;0.65;;;5.20;99.90;;;;;;5007499;28;20436;-73
2023/12/22 04:42:11;;;;;;;1.05;0.32;;;5.20;99.90;;;;;;5003233;28;20052;-78
2023/12/22 04:44:37;;;;;;;1.42;0.40;;;5.10;99.90;;;;;;4999658;28;20514;-73
2023/12/22 04:47:03;;;;;;;1.10;0.13;;;5.10;99.90;;;;;;4998258;28;20866;-72
2023/12/22 04:49:28;;;;;;;1.33;0.50;;;5.10;99.90;;;;;;5005133;28;20021;-69
2023/12/22 04:51:54;;;;;;;2.67;0.52;;;5.10;99.90;;;;;;5001280;28;20037;-72
2023/12/22 04:54:20;;;;;;;2.67;0.70;;;5.10;99.90;;;;;;5002381;28;20545;-72
2023/12/22 04:56:45;;;;;;;3.65;0.90;;;5.10;99.90;;;;;;5002027;28;20504;-66
2023/12/22 04:59:11;;;;;;;3.60;0.60;;;5.10;99.90;;;;;;5000637;28;20040;-77
2023/12/22 05:01:36;;;;;;;2.67;0.77;;;5.10;99.90;;;;;;5004438;28;20762;-80
2023/12/22 05:04:02;;;;;;;2.42;0.82;;;5.10;99.90;;;;;;4999796;28;20095;-67
2023/12/22 05:06:31;;;;;;;2.85;0.80;;;5.10;99.90;;;;;;5000753;28;20563;-76
2023/12/22 05:08:56;;;;;;;3.50;0.52;;;5.20;99.90;;;;;;4997003;28;20032;-80
2023/12/22 05:11:22;;;;;;;4.25;0.95;;;5.20;99.90;;;;;;5003486;28;20021;-65
2023/12/22 05:13:48;;;;;;;3.25;0.47;;;5.20;99.90;;;;;;5006760;28;20037;-73
2023/12/22 05:16:14;;;;;;;3.33;0.55;;;5.20;99.90;;;;;;5000433;28;20330;-68
2023/12/22 05:18:39;;;;;;;2.80;0.70;;;5.20;99.90;;;;;;5000983;28;20499;-77
2023/12/22 05:21:05;;;;;;;3.92;0.70;;;5.20;99.90;;;;;;5001894;28;20036;-73
2023/12/22 05:23:31;;;;;;;3.67;0.70;;;5.20;99.90;;;;;;5000555;28;20124;-72
2023/12/22 05:25:56;;;;;;;4.57;0.57;;;5.20;99.90;;;;;;5004158;28;20484;-74
2023/12/22 05:28:22;;;;;;;4.13;0.60;;;5.30;99.90;;;;;;5000312;28;20033;-73
2023/12/22 05:30:47;;;;;;;3.60;0.60;;;5.30;99.90;;;;;;5000686;28;20041;-77
2023/12/22 05:33:13;;;;;;;3.80;0.82;;;5.30;99.90;;;;;;5007716;28;20025;-70
2023/12/22 05:35:39;;;;;;;3.60;0.70;;;5.20;99.90;;;;;;5003851;28;20713;-66
2023/12/22 05:38:05;;;;;;;1.45;0.60;;;5.20;99.90;;;;;;5006784;28;20112;-68
2023/12/22 05:40:31;;;;;;;4.50;0.60;;;5.20;99.90;;;;;;5004017;28;20065;-82
2023/12/22 05:42:57;;;;;;;2.63;0.75;;;5.20;99.90;;;;;;4994439;28;20136;-70
2023/12/22 05:45:24;;;;;;;2.70;1.30;;;5.30;99.90;;;;;;5001336;28;20048;-74
2023/12/22 05:47:50;;;;;;;3.13;0.80;;;5.30;99.90;;;;;;5005230;28;20819;-68
2023/12/22 05:50:16;;;;;;;3.45;0.65;;;5.20;99.90;;;;;;5002422;28;20033;-70
2023/12/22 05:52:44;;;;;;;3.17;0.73;;;5.20;99.90;;;;;;5002892;28;20277;-74
2023/12/22 05:55:10;;;;;;;4.30;0.90;;;5.20;99.90;;;;;;5003382;28;20033;-75
2023/12/22 05:57:36;;;;;;;2.28;0.30;;;5.20;99.90;;;;;;5004007;28;20040;-78
2023/12/22 06:00:04;;;;;;;2.28;0.80;;;5.20;99.90;;;;;;5002140;28;20117;-75
2023/12/22 06:02:30;;;;;;;2.25;0.52;;;5.10;99.90;;;;;;4995323;28;20029;-72
2023/12/22 06:04:55;;;;;;;2.58;0.73;;;5.10;99.90;;;;;;5002313;28;20574;-74
2023/12/22 06:07:21;;;;;;;5.45;1.30;;;5.10;99.90;;;;;;5000200;28;20038;-73
2023/12/22 06:09:46;;;;;;;3.28;0.75;;;5.10;99.90;;;;;;4998433;28;20038;-70
2023/12/22 06:12:12;;;;;;;1.90;0.70;;;5.10;99.90;;;;;;4999502;28;20737;-68
2023/12/22 06:14:38;;;;;;;2.22;0.57;;;5.10;99.90;;;;;;5004165;28;20064;-68
2023/12/22 06:17:03;;;;;;;5.15;0.98;;;5.00;99.90;;;;;;4997192;28;20132;-67
2023/12/22 06:19:30;;;;;;;2.55;0.88;;;4.90;99.90;;;;;;5000443;28;20030;-74
2023/12/22 06:21:57;;;;;;;3.25;0.60;;;5.00;99.90;;;;;;5001207;28;20029;-67
2023/12/22 06:24:23;;;;;;;3.50;0.65;;;4.90;99.90;;;;;;4994383;28;20026;-67
2023/12/22 06:26:48;;;;;;;2.83;0.63;;;4.90;99.90;;;;;;5001001;28;20026;-77
2023/12/22 06:29:15;;;;;;;2.83;0.60;;;4.90;99.90;;;;;;4973973;28;20130;-68
2023/12/22 06:31:41;;;;;;;3.90;0.80;;;4.90;99.90;;;;;;4996848;28;20093;-66
2023/12/22 06:34:06;;;;;;;2.65;0.73;;;5.00;99.90;;;;;;4998590;28;20048;-75
2023/12/22 06:36:32;;;;;;;2.80;0.40;;;5.00;99.90;;;;;;5001435;28;20145;-71
2023/12/22 06:38:58;;;;;;;5.30;0.80;;;5.00;99.90;;;;;;4995570;28;20025;-67
2023/12/22 06:41:25;;;;;;;2.72;0.63;;;5.00;99.90;;;;;;4998867;28;20033;-67
2023/12/22 06:43:51;;;;;;;3.88;0.80;;;5.00;99.90;;;;;;5000594;28;20053;-64
2023/12/22 06:46:22;;;;;;;5.45;0.60;;;5.00;99.90;;;;;;4990846;28;20067;-72
2023/12/22 06:48:48;;;;;;;4.65;0.70;;;5.10;99.90;;;;;;5001035;28;20056;-71
2023/12/22 06:51:18;;;;;;;3.92;0.77;;;5.10;99.90;;;;;;4998358;28;20522;-75
2023/12/22 06:53:43;;;;;;;3.50;0.73;;;5.00;99.90;;;;;;4995791;28;20513;-72
2023/12/22 06:56:23;;;;;;;5.82;0.80;;;5.00;99.90;;;;;;4998496;28;20041;-73
2023/12/22 06:58:50;;;;;;;3.97;1.00;;;5.00;99.90;;;;;;5004397;28;20221;-74
2023/12/22 07:01:22;;;;;;;2.22;0.98;;;5.00;99.90;;;;;;4996615;28;20044;-76
2023/12/22 07:03:48;;;;;;;2.75;0.80;;;5.10;99.90;;;;;;5000172;28;20037;-72
2023/12/22 07:06:15;;;;;;;3.20;0.80;;;5.10;99.90;;;;;;4995333;28;20297;-73
2023/12/22 07:08:42;;;;;;;3.80;0.93;;;5.10;99.90;;;;;;5000610;28;20038;-70
2023/12/22 07:11:08;;;;;;;4.07;0.68;;;5.10;99.90;;;;;;4997250;28;20033;-69
2023/12/22 07:13:34;;;;;;;4.68;1.55;;;5.00;99.90;;;;;;4996752;28;20021;-69
2023/12/22 07:16:01;;;;;;;5.32;0.63;;;5.00;99.90;;;;;;4995468;28;20060;-69
2023/12/22 07:18:30;;;;;;;2.00;0.90;;;5.00;99.90;;;;;;4996687;28;20014;-70
2023/12/22 07:20:59;;;;;;;1.20;0.13;;;5.00;99.90;;;;;;4996776;28;20682;-63
2023/12/22 07:23:25;;;;;;;4.72;0.80;;;5.00;99.90;;;;;;4998444;28;20041;-63
2023/12/22 07:25:50;;;;;;;6.43;1.00;;;5.00;99.90;;;;;;5002829;28;20107;-63
2023/12/22 07:28:16;;;;;;;4.55;0.68;;;5.10;99.90;;;;;;5001392;28;20032;-64
2023/12/22 07:30:42;;;;;;;2.25;0.45;;;5.10;99.90;;;;;;4973822;28;20042;-62
2023/12/22 07:33:08;;;;;;;5.28;0.60;;;5.20;99.90;;;;;;4982305;28;20033;-63
2023/12/22 07:35:34;;;;;;;3.88;0.82;;;5.20;99.90;;;;;;4995397;28;20049;-64
2023/12/22 07:38:00;;;;;;;4.93;1.13;;;5.30;99.90;;;;;;5000187;28;20041;-63
2023/12/22 07:40:25;;;;;;;3.33;0.93;;;5.30;99.90;;;;;;4975516;28;20026;-63
2023/12/22 07:42:51;;;;;;;5.40;0.63;;;5.40;99.90;;;;;;4997492;28;20044;-63
2023/12/22 07:45:17;;;;;;;4.43;1.02;;;5.50;99.90;;;;;;4975315;28;20881;-63
2023/12/22 07:47:43;;;;;;;3.17;0.70;;;5.60;99.90;;;;;;4996776;28;20389;-63
2023/12/22 07:50:08;;;;;;;3.05;0.68;;;5.60;99.90;;;;;;4998259;28;20508;-63
2023/12/22 07:52:38;;;;;;;4.90;1.17;;;5.60;99.90;;;;;;4997106;28;20367;-63
2023/12/22 07:55:10;;;;;;;5.10;0.77;;;5.60;99.90;;;;;;5000305;28;20641;-64
2023/12/22 07:57:36;;;;;;;5.57;0.93;;;5.70;99.90;;;;;;4981088;28;20041;-64
2023/12/22 08:00:03;;;;;;;1.77;0.57;;;5.80;99.90;;;;;;5006112;28;20638;-71
2023/12/22 08:02:29;;;;;;;3.50;0.68;;;5.90;99.90;;;;;;4995205;28;20538;-72
2023/12/22 08:04:54;;;;;;;6.85;1.10;;;5.90;99.90;;;;;;4984553;28;20084;-66
2023/12/22 08:07:20;;;;;;;3.45;1.00;;;6.00;99.90;;;;;;5001121;28;20026;-71
2023/12/22 08:09:46;;;;;;;4.22;0.75;;;6.00;99.90;;;;;;4994734;28;20095;-76
2023/12/22 08:12:12;;;;;;;5.95;1.08;;;6.00;99.90;;;;;;5005390;28;20493;-78
2023/12/22 08:14:37;;;;;;;3.60;0.63;;;6.00;99.90;;;;;;5004902;28;20052;-77
2023/12/22 08:17:03;;;;;;;2.45;0.77;;;5.90;99.90;;;;;;4996012;28;20041;-69
2023/12/22 08:19:29;;;;;;;5.95;0.65;;;5.90;99.90;;;;;;4996347;28;20388;-68
2023/12/22 08:21:55;;;;;;;2.88;0.82;;;5.90;99.90;;;;;;4988857;28;20132;-75
2023/12/22 08:24:21;;;;;;;2.92;0.68;;;5.90;99.90;;;;;;4994233;28;20029;-67
2023/12/22 08:26:47;;;;;;;2.75;0.47;;;5.90;99.90;;;;;;4998600;28;20105;-71
2023/12/22 08:29:12;;;;;;;3.85;0.85;;;5.90;99.90;;;;;;4988944;28;20164;-70
2023/12/22 08:31:38;;;;;;;3.03;0.70;;;5.90;99.90;;;;;;4995958;28;20399;-67
2023/12/22 08:34:05;;;;;;;2.78;0.45;;;6.00;99.90;;;;;;5000700;28;20403;-68
2023/12/22 08:36:31;;;;;;;2.70;1.00;;;6.00;99.90;;;;;;5008526;28;20508;-68
2023/12/22 08:38:56;;;;;;;3.70;0.80;;;6.00;99.90;;;;;;5002071;28;20486;-72
2023/12/22 08:41:22;;;;;;;3.53;0.80;;;6.10;99.90;;;;;;4999779;28;20047;-68
2023/12/22 08:43:48;;;;;;;3.65;0.93;;;6.20;99.90;;;;;;5000240;28;20029;-75
2023/12/22 08:46:14;;;;;;;4.38;0.93;;;6.20;99.90;;;;;;5003560;28;20055;-74
2023/12/22 08:48:39;;;;;;;5.13;1.20;;;6.10;99.90;;;;;;5004647;28;20033;-77
2023/12/22 08:51:05;;;;;;;3.63;1.17;;;6.20;99.90;;;;;;5004900;28;20041;-65
2023/12/22 08:53:33;;;;;;;6.35;1.00;;;6.30;99.90;;;;;;5002798;28;20022;-69
2023/12/22 08:56:00;;;;;;;2.55;1.08;;;6.50;99.90;;;;;;5003136;28;23210;-68
2023/12/22 08:58:26;;;;;;;1.48;0.43;;;6.70;99.90;;;;;;4998169;28;20289;-74
2023/12/22 09:00:52;;;;;;;2.83;0.85;;;6.70;99.90;;;;;;4996676;28;20168;-68
2023/12/22 09:03:17;;;;;;;3.28;0.60;;;6.80;99.90;;;;;;5005504;28;20092;-66
2023/12/22 09:05:43;;;;;;;7.05;0.68;;;7.00;99.90;;;;;;5004100;28;20051;-65
2023/12/22 09:08:08;;;;;;;4.22;0.90;;;6.70;99.90;;;;;;4995368;28;20057;-65
2023/12/22 09:10:35;;;;;;;5.07;0.98;;;6.50;99.90;;;;;;4997587;28;20060;-72
2023/12/22 09:13:00;;;;;;;2.17;0.70;;;6.60;99.90;;;;;;5000878;28;20116;-73
2023/12/22 09:15:26;;;;;;;4.05;1.05;;;6.50;99.90;;;;;;5010644;28;20108;-71
2023/12/22 09:17:53;;;;;;;2.83;0.68;;;6.70;99.90;;;;;;5009472;28;20108;-72
2023/12/22 09:20:18;;;;;;;4.38;0.88;;;7.10;99.90;;;;;;4998791;28;20044;-74
2023/12/22 09:22:44;;;;;;;2.30;1.08;;;7.50;99.90;;;;;;5001190;28;20034;-71
2023/12/22 09:25:09;;;;;;;2.80;0.90;;;7.20;99.90;;;;;;4996841;28;20502;-77
2023/12/22 09:27:35;;;;;;;4.70;0.95;;;7.00;99.90;;;;;;5001773;28;20099;-77
2023/12/22 09:30:01;;;;;;;5.80;0.82;;;6.80;99.90;;;;;;4996474;28;20075;-68
2023/12/22 09:32:27;;;;;;;4.55;0.98;;;6.70;99.90;;;;;;5000899;28;20060;-72
2023/12/22 09:34:54;;;;;;;1.65;0.30;;;6.60;99.90;;;;;;5010446;28;20489;-73
2023/12/22 09:37:20;;;;;;;4.40;0.60;;;6.50;99.90;;;;;;5005341;28;20049;-73
2023/12/22 09:39:46;;;;;;;2.80;0.80;;;6.30;99.90;;;;;;4995163;28;20057;-72
2023/12/22 09:42:11;;;;;;;4.00;0.43;;;6.20;99.90;;;;;;5001329;28;20084;-72
2023/12/22 09:44:38;;;;;;;2.38;0.88;;;6.00;99.90;;;;;;5008387;28;20025;-74
2023/12/22 09:47:05;;;;;;;1.10;0.45;;;5.90;99.90;;;;;;5002883;28;20040;-74
2023/12/22 09:49:33;;;;;;;2.20;0.65;;;5.90;99.90;;;;;;5006809;28;20085;-75
2023/12/22 09:52:01;;;;;;;4.28;0.85;;;5.90;99.90;;;;;;4998263;28;20138;-73
2023/12/22 09:54:27;;;;;;;2.72;0.43;;;5.90;99.90;;;;;;4992852;28;20021;-74
2023/12/22 09:56:54;;;;;;;3.00;0.65;;;6.00;99.90;;;;;;4998407;28;20100;-76
2023/12/22 09:59:22;;;;;;;2.05;0.77;;;5.90;99.90;;;;;;5004073;28;20097;-73
2023/12/22 10:01:50;;;;;;;2.35;0.90;;;6.00;99.90;;;;;;4984506;28;20513;-73
2023/12/22 10:04:16;;;;;;;1.83;0.55;;;6.00;99.90;;;;;;5003688;28;20394;-72
2023/12/22 10:06:43;;;;;;;2.65;0.82;;;5.90;99.90;;;;;;5002342;28;20038;-73
2023/12/22 10:09:11;;;;;;;2.55;0.55;;;5.90;99.90;;;;;;5003536;28;20025;-73
2023/12/22 10:11:37;;;;;;;4.07;0.70;;;5.90;99.90;;;;;;4996478;28;20025;-75
2023/12/22 10:14:04;;;;;;;1.77;0.60;;;5.90;99.90;;;;;;4984310;28;20029;-72
2023/12/22 10:16:30;;;;;;;1.85;0.65;;;5.80;99.90;;;;;;5000565;28;20108;-73
2023/12/22 10:18:56;;;;;;;3.33;1.10;;;5.80;99.90;;;;;;4999743;28;20049;-74
2023/12/22 10:21:22;;;;;;;1.95;0.52;;;5.80;99.90;;;;;;4996373;28;20654;-78
2023/12/22 10:23:48;;;;;;;3.83;0.52;;;5.90;99.90;;;;;;4999235;28;22792;-73
2023/12/22 10:26:14;;;;;;;3.33;0.57;;;5.90;99.90;;;;;;4994973;28;20064;-78
2023/12/22 10:28:43;;;;;;;3.35;0.47;;;5.90;99.90;;;;;;5002239;28;20041;-75
2023/12/22 10:31:09;;;;;;;2.17;0.55;;;5.90;99.90;;;;;;4992788;28;20822;-76
2023/12/22 10:33:34;;;;;;;1.30;0.30;;;5.90;99.90;;;;;;5001419;28;20068;-76
2023/12/22 10:36:00;;;;;;;2.17;0.77;;;5.90;99.90;;;;;;5004601;28;20041;-77
2023/12/22 10:38:32;;;;;;;3.00;1.15;;;6.00;99.90;;;;;;5004991;28;20029;-76
2023/12/22 10:40:57;;;;;;;2.80;1.15;;;6.00;99.90;;;;;;5002138;28;20124;-75
2023/12/22 10:43:24;;;;;;;1.13;0.65;;;6.10;99.90;;;;;;4999141;28;20035;-76
2023/12/22 10:45:52;;;;;;;4.38;0.60;;;6.20;99.90;;;;;;4990871;28;20063;-75
2023/12/22 10:48:18;;;;;;;3.55;0.60;;;6.20;99.90;;;;;;4998831;28;20030;-76
2023/12/22 10:50:43;;;;;;;1.08;0.43;;;6.20;99.90;;;;;;4995638;28;21612;-76
2023/12/22 10:53:11;;;;;;;2.33;0.40;;;6.20;99.90;;;;;;4999390;28;20608;-75
2023/12/22 10:55:36;;;;;;;1.20;0.52;;;6.20;99.90;;;;;;4995948;28;20046;-76
2023/12/22 10:58:06;;;;;;;2.30;0.73;;;6.20;99.90;;;;;;4994519;28;20060;-75
2023/12/22 11:00:41;;;;;;;2.25;0.65;;;6.20;99.90;;;;;;4996372;28;20927;-75
2023/12/22 11:03:12;;;;;;;1.88;0.40;;;6.30;99.90;;;;;;4978626;28;20056;-73
2023/12/22 11:05:44;;;;;;;2.10;0.40;;;6.30;99.90;;;;;;5001408;28;20487;-66
2023/12/22 11:08:12;;;;;;;2.25;0.47;;;6.40;99.90;;;;;;4992542;28;20044;-65
2023/12/22 11:10:42;;;;;;;4.38;0.30;;;6.40;99.90;;;;;;4996813;28;20044;-66
2023/12/22 11:13:09;;;;;;;2.75;0.40;;;6.40;99.90;;;;;;4994527;28;20738;-65
2023/12/22 11:15:37;;;;;;;1.20;0.52;;;6.50;99.90;;;;;;4978588;28;20522;-65
2023/12/22 11:18:05;;;;;;;0.63;0.15;;;6.60;99.90;;;;;;4999143;28;20051;-66
2023/12/22 11:20:32;;;;;;;2.83;0.20;;;6.50;99.90;;;;;;5002034;28;20740;-66
2023/12/22 11:23:00;;;;;;;1.33;0.43;;;6.40;99.90;;;;;;4999537;28;20136;-66
2023/12/22 11:25:26;;;;;;;1.20;0.20;;;6.20;99.90;;;;;;5003157;28;20069;-66
2023/12/22 11:27:55;;;;;;;0.17;0.17;;;6.10;99.90;;;;;;5004904;28;20319;-65
2023/12/22 11:30:22;;;;;;;1.13;0.50;;;6.10;99.90;;;;;;5002947;28;20555;-65
2023/12/22 11:32:50;;;;;;;1.33;0.57;;;6.20;99.90;;;;;;4989776;28;20799;-65
2023/12/22 11:35:17;;;;;;;1.30;0.55;;;6.10;99.90;;;;;;4996706;28;20576;-66
2023/12/22 11:37:43;;;;;;;1.35;0.40;;;6.00;99.90;;;;;;5017703;28;20530;-67
2023/12/22 11:40:09;;;;;;;2.95;0.50;;;6.00;99.90;;;;;;5023711;28;20151;-67
2023/12/22 11:42:42;;;;;;;1.02;0.43;;;6.10;99.90;;;;;;5008136;28;20033;-74
2023/12/22 11:45:11;;;;;;;2.30;0.40;;;6.10;99.90;;;;;;5021059;28;20030;-63
2023/12/22 11:47:37;;;;;;;1.45;0.40;;;6.20;99.90;;;;;;5008856;28;20072;-64
2023/12/22 11:50:03;;;;;;;1.65;0.60;;;6.00;99.90;;;;;;5011804;28;20026;-63
2023/12/22 11:52:29;;;;;;;2.65;0.40;;;5.90;99.90;;;;;;5018259;28;20045;-64
2023/12/22 11:54:55;;;;;;;0.65;0.47;;;5.90;99.90;;;;;;5020983;28;20029;-64
2023/12/22 11:57:27;;;;;;;1.52;0.30;;;5.80;99.90;;;;;;5023540;28;20091;-64
2023/12/22 11:59:57;;;;;;;1.45;0.40;;;5.90;99.90;;;;;;5013638;28;20513;-63
2023/12/22 12:02:22;;;;;;;3.47;0.57;;;5.90;99.90;;;;;;5020206;28;20067;-63
2023/12/22 12:04:50;;;;;;;1.45;0.60;;;6.00;99.90;;;;;;5018513;28;20118;-64
2023/12/22 12:07:44;;;;;;;1.08;0.63;;;6.00;99.90;;;;;;4996603;28;20048;-63
2023/12/22 12:10:33;;;;;;;2.30;0.73;;;6.10;99.90;;;;;;5025144;28;20112;-69
2023/12/22 12:13:09;;;;;;;1.48;0.30;;;6.20;99.90;;;;;;5014666;28;20160;-66
2023/12/22 12:15:35;;;;;;;1.50;0.45;;;6.20;99.90;;;;;;5030689;28;20528;-68
2023/12/22 12:18:02;;;;;;;1.85;0.35;;;6.20;99.90;;;;;;5029668;28;20064;-70
2023/12/22 12:20:28;;;;;;;2.35;0.40;;;6.20;99.90;;;;;;5031129;28;20082;-77
2023/12/22 12:22:54;;;;;;;4.28;0.77;;;6.30;99.90;;;;;;5027963;28;20806;-71
2023/12/22 12:25:27;;;;;;;2.75;0.40;;;6.30;99.90;;;;;;5020417;28;20116;-74
2023/12/22 12:28:07;;;;;;;1.05;0.30;;;6.30;99.90;;;;;;5022734;28;20029;-70
2023/12/22 12:30:34;;;;;;;1.48;0.38;;;6.40;99.90;;;;;;5030529;28;20078;-73
2023/12/22 12:33:06;;;;;;;0.82;0.30;;;6.40;99.90;;;;;;5026527;28;20040;-71
2023/12/22 12:35:33;;;;;;;6.53;0.38;;;6.30;99.90;;;;;;5024482;28;20041;-72
2023/12/22 12:37:59;;;;;;;3.05;0.40;;;6.30;99.90;;;;;;4999705;28;20042;-74
2023/12/22 12:40:29;;;;;;;1.05;0.30;;;6.30;99.90;;;;;;5010871;28;20224;-72
2023/12/22 12:42:56;;;;;;;2.88;0.70;;;6.10;99.90;;;;;;5010660;28;20029;-72
2023/12/22 12:45:25;;;;;;;1.48;0.25;;;5.70;99.90;;;;;;5010920;28;20741;-71
2023/12/22 12:48:03;;;;;;;1.10;0.35;;;5.50;99.90;;;;;;5013430;28;20030;-71
2023/12/22 12:50:31;;;;;;;1.40;0.10;;;5.40;99.90;;;;;;5014472;28;20033;-74
2023/12/22 12:52:57;;;;;;;2.00;0.30;;;5.40;99.90;;;;;;5011100;28;20109;-72
2023/12/22 12:55:24;;;;;;;0.47;0.10;;;5.40;99.90;;;;;;5011686;28;20048;-68
2023/12/22 12:57:54;;;;;;;0.98;0.20;;;5.40;99.90;;;;;;5015972;28;20042;-69
2023/12/22 13:00:32;;;;;;;0.55;0.30;;;5.40;99.90;;;;;;5014708;28;20075;-68